createdAt,value
2022-11-26T00:04:37.754Z,1014.4
2022-11-26T00:14:44.279Z,1014.5
2022-11-26T00:24:50.931Z,1014.7
2022-11-26T00:34:57.716Z,1014.8
2022-11-26T00:45:04.412Z,1014.8
2022-11-26T00:55:11.144Z,1014.9
2022-11-26T01:05:17.833Z,1015.1
2022-11-26T01:15:24.589Z,1015.3
2022-11-26T01:25:31.317Z,1015.3
2022-11-26T01:35:38.056Z,1015.5
2022-11-26T01:45:44.837Z,1015.5
2022-11-26T01:55:51.486Z,1015.4
2022-11-26T02:05:58.185Z,1015.4
2022-11-26T02:16:05.047Z,1015.4
2022-11-26T02:26:12.872Z,1015.4
2022-11-26T02:36:19.627Z,1015.6
2022-11-26T02:46:26.372Z,1015.5
2022-11-26T02:56:33.056Z,1015.3
2022-11-26T03:06:39.761Z,1015.4
2022-11-26T03:16:47.815Z,1015.4
2022-11-26T03:26:55.683Z,1015.4
2022-11-26T03:37:02.424Z,1015.6
2022-11-26T03:47:09.143Z,1015.8
2022-11-26T03:57:15.948Z,1015.9
2022-11-26T04:07:22.737Z,1016.1
2022-11-26T04:17:29.338Z,1016.2
2022-11-26T04:27:36.016Z,1016.4
2022-11-26T04:37:42.827Z,1016.5
2022-11-26T04:47:49.478Z,1016.7
2022-11-26T04:57:56.238Z,1016.7
2022-11-26T05:08:02.943Z,1016.8
2022-11-26T05:18:09.678Z,1016.9
2022-11-26T05:28:16.365Z,1016.8
2022-11-26T05:38:23.138Z,1016.8
2022-11-26T05:48:29.813Z,1016.9
2022-11-26T05:58:36.568Z,1017.1
2022-11-26T06:08:43.263Z,1017.2
2022-11-26T06:18:50.034Z,1017.2
2022-11-26T06:28:56.705Z,1017.2
2022-11-26T06:39:03.483Z,1017.3
2022-11-26T06:49:10.186Z,1017.3
2022-11-26T06:59:16.940Z,1017.5
2022-11-26T07:09:24.845Z,1017.5
2022-11-26T07:19:31.608Z,1017.6
2022-11-26T07:29:38.289Z,1017.9
2022-11-26T07:39:46.278Z,1017.9
2022-11-26T07:49:54.226Z,1018
2022-11-26T08:00:00.969Z,1018.1
2022-11-26T08:10:07.697Z,1018.1
2022-11-26T08:20:15.658Z,1018
2022-11-26T08:30:22.344Z,1018
2022-11-26T08:40:29.107Z,1018.2
2022-11-26T08:50:35.784Z,1018.3
2022-11-26T09:00:42.546Z,1018.2
2022-11-26T09:10:49.249Z,1018.4
2022-11-26T09:20:57.359Z,1018.5
2022-11-26T09:31:02.693Z,1018.6
2022-11-26T09:41:10.680Z,1018.5
2022-11-26T09:51:17.417Z,1018.6
2022-11-26T10:01:24.384Z,1018.6
2022-11-26T10:11:30.819Z,1018.6
2022-11-26T10:21:58.176Z,1018.5
2022-11-26T10:31:44.352Z,1018.6
2022-11-26T10:41:52.271Z,1018.5
2022-11-26T10:51:58.953Z,1018.5
2022-11-26T11:02:05.754Z,1018.5
2022-11-26T11:12:12.416Z,1018.5
2022-11-26T11:22:19.170Z,1018.4
2022-11-26T11:32:25.843Z,1018.3
2022-11-26T11:42:32.611Z,1018.4
2022-11-26T11:52:39.324Z,1018.4
2022-11-26T12:02:46.076Z,1018.4
2022-11-26T12:12:52.754Z,1018.4
2022-11-26T12:22:59.515Z,1018.4
2022-11-26T12:33:06.219Z,1018.4
2022-11-26T12:43:12.940Z,1018.3
2022-11-26T12:53:19.678Z,1018.4
2022-11-26T13:03:26.406Z,1018.3
2022-11-26T13:13:33.105Z,1018.3
2022-11-26T13:23:39.857Z,1018.2
2022-11-26T13:33:47.799Z,1018.2
2022-11-26T13:43:54.531Z,1018.1
2022-11-26T13:54:01.228Z,1018
2022-11-26T14:04:07.993Z,1017.9
2022-11-26T14:14:14.688Z,1017.8
2022-11-26T14:24:21.627Z,1017.5
2022-11-26T14:34:28.152Z,1017.6
2022-11-26T14:44:36.488Z,1017.5
2022-11-26T14:54:42.834Z,1017.5
2022-11-26T15:04:50.796Z,1017.6
2022-11-26T15:14:58.740Z,1017.6
2022-11-26T15:25:05.463Z,1017.6
2022-11-26T15:35:13.402Z,1017.6
2022-11-26T15:45:20.152Z,1017.7
2022-11-26T15:55:26.846Z,1017.7
2022-11-26T16:05:33.607Z,1017.6
2022-11-26T16:15:40.305Z,1017.7
2022-11-26T16:25:47.110Z,1017.6
2022-11-26T16:35:53.805Z,1017.4
2022-11-26T16:46:00.599Z,1017.5
2022-11-26T16:56:07.242Z,1017.6
2022-11-26T17:06:14.000Z,1017.6
2022-11-26T17:16:20.797Z,1017.6
2022-11-26T17:26:27.439Z,1017.6
2022-11-26T17:36:37.036Z,1017.6
2022-11-26T17:47:01.468Z,1017.6
2022-11-26T17:56:47.589Z,1017.5
2022-11-26T18:06:54.362Z,1017.3
2022-11-26T18:17:01.157Z,1017.3
2022-11-26T18:27:07.801Z,1017.2
2022-11-26T18:37:14.586Z,1017.2
2022-11-26T18:47:21.240Z,1017.2
2022-11-26T18:57:27.943Z,1017.2
2022-11-26T19:07:34.794Z,1017.2
2022-11-26T19:17:41.389Z,1017.1
2022-11-26T19:27:48.149Z,1017.1
2022-11-26T19:37:54.850Z,1017
2022-11-26T19:48:02.808Z,1016.9
2022-11-26T19:58:09.521Z,1017
2022-11-26T20:08:16.276Z,1016.8
2022-11-26T20:18:22.965Z,1016.9
2022-11-26T20:28:29.752Z,1017
2022-11-26T20:38:36.410Z,1017.1
2022-11-26T20:48:43.189Z,1017.1
2022-11-26T20:58:49.889Z,1017.3
2022-11-26T21:08:56.635Z,1017.3
2022-11-26T21:19:03.315Z,1017.3
2022-11-26T21:29:10.093Z,1017.2
2022-11-26T21:39:16.783Z,1017.2
2022-11-26T21:49:23.521Z,1017.1
2022-11-26T21:59:30.235Z,1016.9
2022-11-26T22:09:37.240Z,1016.6
2022-11-26T22:19:43.699Z,1016.4
2022-11-26T22:29:50.452Z,1016.3
2022-11-26T22:39:58.348Z,1016.2
2022-11-26T22:50:06.341Z,1016
2022-11-26T23:00:14.253Z,1016
2022-11-26T23:10:21.078Z,1015.9
2022-11-26T23:20:27.707Z,1016
2022-11-26T23:30:35.681Z,1015.8
2022-11-26T23:40:42.395Z,1015.6
2022-11-26T23:50:49.143Z,1015.4
